Decoded Metar for VTCC (CHIANG MAI(CIV/A in THAILAND) (IATA:N/A) | Meteo·Mobile Aviation Weather
aviador You're here:

VTCC Decoded Metar

CHIANG MAI(CIV/A in THAILAND
Report Time2020-02-18 21:30:00
UTC Time2020-02-18 22:00:18
Flight Rules mvfr MVFR
WindCalm
Visibility7000 m
Phenomena:N/A
Clouds:Few 035 Hf
Expected CloudBase > 1,200 ft AGL from Temp-Dew spread
CeilingNone
Temp20°C (ISA +7)
Dew Point17°C (83% RH)
QNH1017 hPa
Density Alt1,982 ft
Elevation1,030 ft
Report Wrong Elevation
Raw Report
VTCC 182130Z 00000KT 7000 FEW035 20/17 Q1017 NOSIG=

Extra information for VTCC:More info

Metar Taf Metar & Taf Last 4 Metars F.Rules Stats Wind Profile Meteogram Temp Stats Airport Information Weather charts Add Link Nearby VenuesMetar ALERT Operation Metar Decoded Social comments